createdAt,value
2023-03-06T00:00:45.384Z,98014.03
2023-03-06T00:03:12.511Z,98017.53
2023-03-06T00:05:39.991Z,98015.91
2023-03-06T00:08:07.019Z,98017.81
2023-03-06T00:10:34.229Z,98010.03
2023-03-06T00:13:05.688Z,98007.63
2023-03-06T00:15:32.923Z,98010.84
2023-03-06T00:18:03.924Z,98007.38
2023-03-06T00:20:31.001Z,98012.47
2023-03-06T00:22:58.812Z,98010.31
2023-03-06T00:25:26.593Z,97995.06
2023-03-06T00:27:53.524Z,97996.16
2023-03-06T00:30:26.092Z,97991.31
2023-03-06T00:32:53.924Z,97987.28
2023-03-06T00:35:21.169Z,97989.72
2023-03-06T00:37:48.162Z,97989.19
2023-03-06T00:40:19.182Z,97989.19
2023-03-06T00:42:47.267Z,97983.28
2023-03-06T00:45:14.493Z,97986.75
2023-03-06T00:47:41.980Z,97979.00
2023-03-06T00:50:10.044Z,97985.16
2023-03-06T00:52:37.261Z,97983.28
2023-03-06T00:55:05.866Z,97981.16
2023-03-06T00:57:32.694Z,97974.16
2023-03-06T00:59:59.553Z,97977.91
2023-03-06T01:02:26.478Z,97977.38
2023-03-06T01:04:53.440Z,97973.09
2023-03-06T01:07:20.349Z,97977.66
2023-03-06T01:09:47.222Z,97969.34
2023-03-06T01:12:14.291Z,97966.13
2023-03-06T01:14:41.202Z,97959.16
2023-03-06T01:17:08.090Z,97962.38
2023-03-06T01:19:34.857Z,97960.53
2023-03-06T01:22:01.608Z,97947.94
2023-03-06T01:24:28.665Z,97952.50
2023-03-06T01:26:56.096Z,97952.75
2023-03-06T01:29:22.921Z,97946.84
2023-03-06T01:31:53.532Z,97953.03
2023-03-06T01:34:20.786Z,97949.53
2023-03-06T01:36:48.292Z,97945.25
2023-03-06T01:39:15.468Z,97937.75
2023-03-06T01:41:42.186Z,97933.22
2023-03-06T01:44:13.574Z,97926.78
2023-03-06T01:46:43.484Z,97923.84
2023-03-06T01:49:16.582Z,97926.25
2023-03-06T01:51:52.096Z,97912.34
2023-03-06T01:54:27.025Z,97916.88
2023-03-06T01:57:03.536Z,97922.50
2023-03-06T01:59:34.667Z,97909.13
2023-03-06T02:02:03.816Z,97903.25
2023-03-06T02:04:32.592Z,97896.53
2023-03-06T02:07:04.818Z,97901.09
2023-03-06T02:09:34.143Z,97889.56
2023-03-06T02:12:10.600Z,97885.03
2023-03-06T02:14:39.792Z,97880.22
2023-03-06T02:17:10.860Z,97877.81
2023-03-06T02:19:49.594Z,97882.91
2023-03-06T02:22:16.414Z,97881.00
2023-03-06T02:24:54.241Z,97878.84
2023-03-06T02:27:24.361Z,97877.53
2023-03-06T02:29:51.322Z,97869.75
2023-03-06T02:32:18.330Z,97871.66
2023-03-06T02:34:51.976Z,97874.56
2023-03-06T02:37:20.043Z,97868.44
2023-03-06T02:39:54.593Z,97856.91
2023-03-06T02:42:28.617Z,97862.81
2023-03-06T02:44:59.298Z,97860.66
2023-03-06T02:47:26.331Z,97863.88
2023-03-06T02:49:53.222Z,97859.34
2023-03-06T02:52:20.051Z,97855.59
2023-03-06T02:54:46.786Z,97845.66
2023-03-06T02:57:13.559Z,97846.47
2023-03-06T02:59:40.374Z,97846.47
2023-03-06T03:02:07.299Z,97845.66
2023-03-06T03:04:34.827Z,97851.31
2023-03-06T03:07:01.724Z,97854.53
2023-03-06T03:09:28.782Z,97848.34
2023-03-06T03:11:55.718Z,97840.31
2023-03-06T03:14:24.990Z,97840.06
2023-03-06T03:16:52.152Z,97826.94
2023-03-06T03:19:19.090Z,97829.38
2023-03-06T03:21:46.123Z,97828.03
2023-03-06T03:24:13.249Z,97829.09
2023-03-06T03:26:40.132Z,97833.91
2023-03-06T03:29:07.251Z,97828.28
2023-03-06T03:31:37.469Z,97819.97
2023-03-06T03:34:04.362Z,97829.91
2023-03-06T03:36:31.277Z,97825.34
2023-03-06T03:38:58.170Z,97820.50
2023-03-06T03:41:25.057Z,97816.22
2023-03-06T03:43:52.151Z,97823.72
2023-03-06T03:46:19.023Z,97822.13
2023-03-06T03:48:45.843Z,97823.19
2023-03-06T03:51:16.480Z,97817.06
2023-03-06T03:53:44.928Z,97823.75
2023-03-06T03:56:13.220Z,97822.69
2023-03-06T03:58:39.965Z,97830.69
2023-03-06T04:01:07.743Z,97810.91
2023-03-06T04:03:34.686Z,97820.00
2023-03-06T04:06:01.555Z,97808.22
2023-03-06T04:08:29.005Z,97810.09
2023-03-06T04:10:56.117Z,97809.81
2023-03-06T04:13:23.693Z,97790.84
2023-03-06T04:15:54.294Z,97792.19
2023-03-06T04:18:23.183Z,97798.34
2023-03-06T04:20:51.017Z,97794.84
2023-03-06T04:23:19.364Z,97788.41
2023-03-06T04:25:46.731Z,97784.97
2023-03-06T04:28:13.963Z,97792.44
2023-03-06T04:30:41.529Z,97788.41
2023-03-06T04:33:09.163Z,97782.53
2023-03-06T04:35:36.177Z,97778.53
2023-03-06T04:38:03.779Z,97778.53
2023-03-06T04:40:34.392Z,97775.31
2023-03-06T04:43:03.087Z,97778.00
2023-03-06T04:45:31.749Z,97776.13
2023-03-06T04:47:59.134Z,97777.47
2023-03-06T04:50:28.249Z,97770.50
2023-03-06T04:52:55.224Z,97768.63
2023-03-06T04:55:22.120Z,97768.91
2023-03-06T04:57:49.185Z,97769.69
2023-03-06T05:00:20.754Z,97775.06
2023-03-06T05:02:49.108Z,97774.53
2023-03-06T05:05:18.245Z,97767.59
2023-03-06T05:07:46.274Z,97775.06
2023-03-06T05:10:17.989Z,97773.47
2023-03-06T05:12:45.240Z,97770.25
2023-03-06T05:15:13.494Z,97763.28
2023-03-06T05:17:40.636Z,97764.66
2023-03-06T05:20:09.898Z,97766.50
2023-03-06T05:22:37.061Z,97762.47
2023-03-06T05:25:04.898Z,97764.34
2023-03-06T05:27:31.944Z,97760.06
2023-03-06T05:29:59.275Z,97759.28
2023-03-06T05:32:28.907Z,97757.38
2023-03-06T05:34:56.487Z,97751.25
2023-03-06T05:37:23.657Z,97755.78
2023-03-06T05:39:51.704Z,97754.19
2023-03-06T05:42:18.571Z,97752.56
2023-03-06T05:44:45.908Z,97745.34
2023-03-06T05:47:13.274Z,97748.56
2023-03-06T05:49:40.556Z,97736.81
2023-03-06T05:52:08.881Z,97742.16
2023-03-06T05:54:37.501Z,97750.72
2023-03-06T05:57:05.970Z,97747.22
2023-03-06T05:59:33.705Z,97746.13
2023-03-06T06:02:01.916Z,97743.97
2023-03-06T06:04:28.867Z,97753.59
2023-03-06T06:06:59.728Z,97755.75
2023-03-06T06:09:27.897Z,97750.94
2023-03-06T06:11:59.548Z,97760.56
2023-03-06T06:14:27.076Z,97756.28
2023-03-06T06:16:54.791Z,97753.63
2023-03-06T06:19:23.011Z,97749.88
2023-03-06T06:21:54.213Z,97748.72
2023-03-06T06:24:25.225Z,97754.34
2023-03-06T06:26:57.676Z,97747.09
2023-03-06T06:29:26.564Z,97754.31
2023-03-06T06:31:53.881Z,97758.56
2023-03-06T06:34:21.652Z,97757.22
2023-03-06T06:36:53.239Z,97760.44
2023-03-06T06:39:23.363Z,97760.66
2023-03-06T06:42:05.550Z,97766.00
2023-03-06T06:44:37.976Z,97762.25
2023-03-06T06:47:24.095Z,97762.50
2023-03-06T06:49:54.077Z,97757.91
2023-03-06T06:52:21.775Z,97755.75
2023-03-06T06:54:48.585Z,97765.66
2023-03-06T06:57:16.511Z,97769.38
2023-03-06T06:59:43.367Z,97773.09
2023-03-06T07:02:15.690Z,97772.81
2023-03-06T07:05:00.392Z,97774.94
2023-03-06T07:07:34.145Z,97785.31
2023-03-06T07:10:01.252Z,97786.38
2023-03-06T07:12:28.081Z,97787.44
2023-03-06T07:14:55.264Z,97786.91
2023-03-06T07:17:22.208Z,97792.25
2023-03-06T07:19:49.489Z,97793.84
2023-03-06T07:22:16.543Z,97794.41
2023-03-06T07:24:43.324Z,97792.25
2023-03-06T07:27:10.741Z,97799.22
2023-03-06T07:29:38.079Z,97794.91
2023-03-06T07:32:05.175Z,97801.09
2023-03-06T07:34:32.127Z,97798.66
2023-03-06T07:36:59.001Z,97808.06
2023-03-06T07:39:27.919Z,97798.63
2023-03-06T07:41:54.672Z,97801.09
2023-03-06T07:44:22.064Z,97799.19
2023-03-06T07:46:50.488Z,97800.56
2023-03-06T07:49:18.077Z,97799.75
2023-03-06T07:51:45.197Z,97801.09
2023-03-06T07:54:12.103Z,97800.28
2023-03-06T07:56:38.998Z,97806.44
2023-03-06T07:59:05.830Z,97809.41
2023-03-06T08:01:33.100Z,97811.03
2023-03-06T08:04:01.802Z,97805.44
2023-03-06T08:06:28.689Z,97809.44
2023-03-06T08:08:56.895Z,97801.69
2023-03-06T08:11:28.643Z,97804.63
2023-03-06T08:13:56.829Z,97811.59
2023-03-06T08:16:28.736Z,97813.50
2023-03-06T08:18:57.102Z,97812.97
2023-03-06T08:21:27.703Z,97814.84
2023-03-06T08:23:54.987Z,97814.59
2023-03-06T08:26:29.103Z,97819.09
2023-03-06T08:28:59.184Z,97813.75
2023-03-06T08:31:38.035Z,97820.69
2023-03-06T08:34:15.037Z,97825.00
2023-03-06T08:36:42.374Z,97824.75
2023-03-06T08:39:10.040Z,97833.31
2023-03-06T08:41:37.750Z,97830.38
2023-03-06T08:44:05.436Z,97830.94
2023-03-06T08:46:34.140Z,97828.22
2023-03-06T08:49:01.859Z,97830.34
2023-03-06T08:51:29.128Z,97829.28
2023-03-06T08:53:58.264Z,97820.44
2023-03-06T08:56:29.872Z,97830.59
2023-03-06T08:59:00.310Z,97828.72
2023-03-06T09:01:31.635Z,97830.28
2023-03-06T09:04:04.338Z,97829.19
2023-03-06T09:06:35.846Z,97829.19
2023-03-06T09:09:03.964Z,97835.59
2023-03-06T09:11:31.493Z,97830.22
2023-03-06T09:13:59.406Z,97839.59
2023-03-06T09:16:26.993Z,97840.94
2023-03-06T09:18:54.343Z,97841.47
2023-03-06T09:21:26.174Z,97836.09
2023-03-06T09:23:53.059Z,97836.88
2023-03-06T09:26:20.331Z,97838.19
2023-03-06T09:28:47.418Z,97834.97
2023-03-06T09:31:18.686Z,97845.41
2023-03-06T09:33:46.676Z,97841.38
2023-03-06T09:36:21.286Z,97839.22
2023-03-06T09:38:49.770Z,97845.94
2023-03-06T09:41:40.584Z,97837.59
2023-03-06T09:44:22.696Z,97835.44
2023-03-06T09:47:14.772Z,97838.13
2023-03-06T09:50:19.371Z,97839.91
2023-03-06T09:53:04.830Z,97830.69
2023-03-06T09:55:38.000Z,97833.63
2023-03-06T09:58:22.039Z,97836.84
2023-03-06T10:01:02.930Z,97834.47
2023-03-06T10:03:57.612Z,97839.78
2023-03-06T10:06:34.727Z,97824.53
2023-03-06T10:09:24.385Z,97835.75
2023-03-06T10:12:04.930Z,97830.09
2023-03-06T10:14:43.042Z,97828.78
2023-03-06T10:17:20.647Z,97834.59
2023-03-06T10:19:47.954Z,97830.56
2023-03-06T10:22:44.777Z,97834.59
2023-03-06T10:25:49.883Z,97836.72
2023-03-06T10:28:23.142Z,97833.19
2023-03-06T10:31:26.784Z,97841.22
2023-03-06T10:33:55.524Z,97836.03
2023-03-06T10:36:27.473Z,97834.16
2023-03-06T10:38:59.742Z,97829.59
2023-03-06T10:41:35.618Z,97826.38
2023-03-06T10:44:20.768Z,97828.22
2023-03-06T10:46:52.246Z,97826.81
2023-03-06T10:49:37.796Z,97831.56
2023-03-06T10:52:13.762Z,97829.38
2023-03-06T10:54:44.602Z,97824.47
2023-03-06T10:57:31.624Z,97823.31
2023-03-06T11:00:08.565Z,97825.91
2023-03-06T11:02:41.036Z,97828.13
2023-03-06T11:05:20.635Z,97819.00
2023-03-06T11:08:00.171Z,97828.63
2023-03-06T11:10:31.214Z,97831.25
2023-03-06T11:13:24.126Z,97823.50
2023-03-06T11:16:30.650Z,97820.09
2023-03-06T11:19:12.380Z,97811.88
2023-03-06T11:21:40.718Z,97821.28
2023-03-06T11:24:20.273Z,97817.72
2023-03-06T11:26:59.292Z,97822.56
2023-03-06T11:29:46.746Z,97820.09
2023-03-06T11:32:31.735Z,97815.03
2023-03-06T11:35:02.653Z,97808.56
2023-03-06T11:37:32.599Z,97810.22
2023-03-06T11:40:12.023Z,97802.44
2023-03-06T11:43:35.591Z,97809.22
2023-03-06T11:46:28.562Z,97801.94
2023-03-06T11:49:12.646Z,97793.50
2023-03-06T11:51:53.051Z,97793.78
2023-03-06T11:54:20.805Z,97794.22
2023-03-06T11:56:59.680Z,97793.50
2023-03-06T11:59:58.465Z,97789.78
2023-03-06T12:02:43.514Z,97789.09
2023-03-06T12:05:36.515Z,97791.28
2023-03-06T12:08:27.971Z,97788.19
2023-03-06T12:10:59.437Z,97792.56
2023-03-06T12:14:03.944Z,97779.44
2023-03-06T12:17:01.968Z,97786.41
2023-03-06T12:20:19.707Z,97784.97
2023-03-06T12:23:21.702Z,97777.50
2023-03-06T12:26:00.606Z,97778.63
2023-03-06T12:28:58.732Z,97775.44
2023-03-06T12:31:49.947Z,97777.03
2023-03-06T12:34:19.567Z,97779.22
2023-03-06T12:37:00.640Z,97773.47
2023-03-06T12:39:33.889Z,97777.69
2023-03-06T12:42:25.487Z,97768.34
2023-03-06T12:45:10.186Z,97766.47
2023-03-06T12:47:46.406Z,97766.56
2023-03-06T12:50:32.628Z,97764.25
2023-03-06T12:53:14.982Z,97767.53
2023-03-06T12:55:47.410Z,97764.81
2023-03-06T12:58:48.890Z,97764.13
2023-03-06T13:01:45.961Z,97768.69
2023-03-06T13:04:41.250Z,97753.94
2023-03-06T13:07:31.481Z,97759.75
2023-03-06T13:10:01.178Z,97753.47
2023-03-06T13:13:01.055Z,97752.59
2023-03-06T13:15:41.070Z,97752.97
2023-03-06T13:18:33.867Z,97752.59
2023-03-06T13:21:01.549Z,97754.47
2023-03-06T13:23:47.858Z,97747.81
2023-03-06T13:26:26.898Z,97754.16
2023-03-06T13:28:57.846Z,97750.88
2023-03-06T13:31:45.193Z,97752.97
2023-03-06T13:34:42.110Z,97742.59
2023-03-06T13:37:22.905Z,97740.06
2023-03-06T13:39:55.570Z,97750.53
2023-03-06T13:42:36.751Z,97744.34
2023-03-06T13:45:34.378Z,97746.91
2023-03-06T13:48:37.539Z,97742.91
2023-03-06T13:50:49.689Z,97740.72
2023-03-06T13:53:42.874Z,97735.34
2023-03-06T13:56:47.465Z,97730.56
2023-03-06T13:59:57.040Z,97721.41
2023-03-06T14:02:55.561Z,97725.38
2023-03-06T14:05:22.977Z,97724.78
2023-03-06T14:08:12.826Z,97726.03
2023-03-06T14:10:40.476Z,97713.09
2023-03-06T14:13:23.630Z,97723.84
2023-03-06T14:15:55.430Z,97723.84
2023-03-06T14:18:39.712Z,97720.72
2023-03-06T14:21:13.532Z,97714.28
2023-03-06T14:23:45.834Z,97720.47
2023-03-06T14:26:23.695Z,97716.19
2023-03-06T14:28:59.387Z,97717.25
2023-03-06T14:31:36.312Z,97709.47
2023-03-06T14:34:21.577Z,97714.16
2023-03-06T14:36:59.990Z,97709.94
2023-03-06T14:39:43.512Z,97715.34
2023-03-06T14:42:25.765Z,97711.06
2023-03-06T14:45:23.943Z,97719.28
2023-03-06T14:47:53.105Z,97707.75
2023-03-06T14:50:33.929Z,97713.41
2023-03-06T14:53:15.801Z,97718.91
2023-03-06T14:56:06.291Z,97719.94
2023-03-06T14:58:55.062Z,97719.66
2023-03-06T15:01:27.738Z,97723.72
2023-03-06T15:04:00.328Z,97726.25
2023-03-06T15:06:39.001Z,97723.13
2023-03-06T15:09:20.790Z,97718.03
2023-03-06T15:11:57.647Z,97718.31
2023-03-06T15:14:35.522Z,97713.81
2023-03-06T15:17:17.535Z,97715.34
2023-03-06T15:19:51.630Z,97711.56
2023-03-06T15:22:41.100Z,97710.41
2023-03-06T15:25:26.980Z,97709.63
2023-03-06T15:28:27.900Z,97711.50
2023-03-06T15:31:28.397Z,97717.69
2023-03-06T15:34:04.123Z,97716.09
2023-03-06T15:36:35.101Z,97709.03
2023-03-06T15:39:24.708Z,97713.84
2023-03-06T15:42:00.176Z,97713.53
2023-03-06T15:44:30.240Z,97709.47
2023-03-06T15:47:07.720Z,97711.00
2023-03-06T15:49:38.526Z,97712.88
2023-03-06T15:52:09.487Z,97715.06
2023-03-06T15:54:37.896Z,97718.41
2023-03-06T15:57:11.791Z,97717.69
2023-03-06T15:59:44.344Z,97713.09
2023-03-06T16:02:17.385Z,97714.13
2023-03-06T16:04:45.298Z,97720.56
2023-03-06T16:07:13.371Z,97715.06
2023-03-06T16:09:42.263Z,97711.06
2023-03-06T16:12:17.409Z,97709.97
2023-03-06T16:14:47.322Z,97719.94
2023-03-06T16:17:15.178Z,97719.69
2023-03-06T16:19:43.332Z,97716.41
2023-03-06T16:22:10.709Z,97716.41
2023-03-06T16:24:37.881Z,97719.19
2023-03-06T16:27:05.194Z,97715.19
2023-03-06T16:29:32.177Z,97712.72
2023-03-06T16:32:01.605Z,97720.00
2023-03-06T16:34:28.481Z,97713.81
2023-03-06T16:36:55.356Z,97703.81
2023-03-06T16:39:24.037Z,97715.06
2023-03-06T16:41:52.219Z,97714.63
2023-03-06T16:44:20.874Z,97721.06
2023-03-06T16:46:50.057Z,97720.78
2023-03-06T16:49:23.341Z,97720.19
2023-03-06T16:51:51.630Z,97723.75
2023-03-06T16:54:18.986Z,97727.09
2023-03-06T16:56:46.276Z,97730.91
2023-03-06T16:59:13.317Z,97728.63
2023-03-06T17:01:44.959Z,97729.19
2023-03-06T17:04:12.179Z,97736.22
2023-03-06T17:06:39.834Z,97723.31
2023-03-06T17:09:06.939Z,97730.03
2023-03-06T17:11:38.364Z,97731.69
2023-03-06T17:14:06.985Z,97736.22
2023-03-06T17:16:34.139Z,97737.81
2023-03-06T17:19:02.299Z,97738.03
2023-03-06T17:21:30.216Z,97745.31
2023-03-06T17:23:57.595Z,97743.41
2023-03-06T17:26:24.529Z,97748.56
2023-03-06T17:28:51.541Z,97747.19
2023-03-06T17:31:27.076Z,97748.00
2023-03-06T17:33:59.102Z,97746.41
2023-03-06T17:36:35.330Z,97753.63
2023-03-06T17:39:04.008Z,97752.34
2023-03-06T17:41:33.074Z,97752.59
2023-03-06T17:44:01.557Z,97752.34
2023-03-06T17:46:28.604Z,97756.88
2023-03-06T17:48:55.496Z,97755.28
2023-03-06T17:51:23.625Z,97755.28
2023-03-06T17:53:52.320Z,97754.50
2023-03-06T17:56:19.968Z,97760.91
2023-03-06T17:58:50.881Z,97757.91
2023-03-06T18:01:24.008Z,97770.31
2023-03-06T18:03:55.293Z,97763.84
2023-03-06T18:06:27.800Z,97761.75
2023-03-06T18:08:57.089Z,97767.41
2023-03-06T18:11:27.824Z,97773.31
2023-03-06T18:13:54.801Z,97769.34
2023-03-06T18:16:25.820Z,97763.75
2023-03-06T18:18:55.266Z,97771.00
2023-03-06T18:21:24.519Z,97766.94
2023-03-06T18:23:52.006Z,97766.19
2023-03-06T18:26:29.478Z,97767.28
2023-03-06T18:29:04.335Z,97767.56
2023-03-06T18:31:36.145Z,97763.28
2023-03-06T18:34:13.237Z,97757.97
2023-03-06T18:36:43.660Z,97767.16
2023-03-06T18:39:13.983Z,97767.16
2023-03-06T18:41:42.640Z,97763.66
2023-03-06T18:44:19.158Z,97761.72
2023-03-06T18:46:46.391Z,97763.28
2023-03-06T18:49:19.092Z,97764.63
2023-03-06T18:51:48.465Z,97766.00
2023-03-06T18:54:25.278Z,97760.13
2023-03-06T18:56:52.511Z,97766.22
2023-03-06T18:59:20.257Z,97763.03
2023-03-06T19:01:57.306Z,97759.03
2023-03-06T19:04:36.584Z,97752.34
2023-03-06T19:07:05.122Z,97755.84
2023-03-06T19:09:32.482Z,97755.53
2023-03-06T19:12:03.176Z,97753.69
2023-03-06T19:14:30.599Z,97754.50
2023-03-06T19:17:00.736Z,97753.22
2023-03-06T19:19:29.347Z,97751.84
2023-03-06T19:22:00.595Z,97760.19
2023-03-06T19:24:30.740Z,97764.97
2023-03-06T19:26:57.862Z,97759.09
2023-03-06T19:29:25.737Z,97757.44
2023-03-06T19:31:53.202Z,97752.81
2023-03-06T19:34:23.279Z,97748.06
2023-03-06T19:36:54.897Z,97750.47
2023-03-06T19:39:22.601Z,97764.72
2023-03-06T19:41:50.015Z,97757.25
2023-03-06T19:44:17.730Z,97745.44
2023-03-06T19:46:55.605Z,97746.25
2023-03-06T19:49:23.015Z,97744.66
2023-03-06T19:51:50.290Z,97751.34
2023-03-06T19:54:18.044Z,97743.03
2023-03-06T19:56:45.397Z,97743.56
2023-03-06T19:59:13.568Z,97746.75
2023-03-06T20:01:40.920Z,97744.69
2023-03-06T20:04:07.997Z,97746.34
2023-03-06T20:06:36.647Z,97746.28
2023-03-06T20:09:08.579Z,97739.03
2023-03-06T20:11:35.963Z,97743.09
2023-03-06T20:14:06.911Z,97736.06
2023-03-06T20:16:34.990Z,97733.44
2023-03-06T20:19:03.068Z,97735.03
2023-03-06T20:21:37.700Z,97732.63
2023-03-06T20:24:08.972Z,97731.03
2023-03-06T20:26:38.023Z,97729.16
2023-03-06T20:29:08.204Z,97722.19
2023-03-06T20:31:36.492Z,97722.75
2023-03-06T20:34:04.594Z,97724.34
2023-03-06T20:36:40.449Z,97719.50
2023-03-06T20:39:16.827Z,97721.63
2023-03-06T20:41:46.933Z,97721.09
2023-03-06T20:44:17.944Z,97717.34
2023-03-06T20:46:45.386Z,97714.31
2023-03-06T20:49:13.393Z,97718.06
2023-03-06T20:51:42.237Z,97719.47
2023-03-06T20:54:14.647Z,97717.34
2023-03-06T20:56:47.346Z,97717.09
2023-03-06T20:59:14.906Z,97712.03
2023-03-06T21:01:50.844Z,97716.31
2023-03-06T21:04:18.424Z,97712.25
2023-03-06T21:06:47.101Z,97713.06
2023-03-06T21:09:18.125Z,97718.13
2023-03-06T21:11:48.604Z,97707.63
2023-03-06T21:14:16.037Z,97700.66
2023-03-06T21:16:43.598Z,97698.25
2023-03-06T21:19:12.212Z,97700.66
2023-03-06T21:21:39.128Z,97695.56
2023-03-06T21:24:06.335Z,97696.91
2023-03-06T21:26:34.151Z,97693.69
2023-03-06T21:29:02.455Z,97686.22
2023-03-06T21:31:31.302Z,97689.13
2023-03-06T21:33:59.030Z,97694.50
2023-03-06T21:36:27.142Z,97682.97
2023-03-06T21:38:55.105Z,97681.94
2023-03-06T21:41:30.491Z,97684.66
2023-03-06T21:44:01.726Z,97676.31
2023-03-06T21:46:33.545Z,97679.53
2023-03-06T21:49:04.236Z,97672.59
2023-03-06T21:51:31.734Z,97673.13
2023-03-06T21:53:59.180Z,97670.44
2023-03-06T21:56:28.551Z,97671.22
2023-03-06T21:58:58.453Z,97677.16
2023-03-06T22:01:28.826Z,97666.69
2023-03-06T22:03:58.444Z,97670.44
2023-03-06T22:06:29.776Z,97666.44
2023-03-06T22:08:59.797Z,97674.47
2023-03-06T22:11:31.469Z,97670.16
2023-03-06T22:13:58.563Z,97673.59
2023-03-06T22:16:25.459Z,97679.47
2023-03-06T22:18:52.581Z,97671.44
2023-03-06T22:21:22.418Z,97672.25
2023-03-06T22:23:57.815Z,97670.63
2023-03-06T22:26:28.033Z,97667.97
2023-03-06T22:28:55.094Z,97669.81
2023-03-06T22:31:26.287Z,97669.81
2023-03-06T22:33:56.178Z,97662.06
2023-03-06T22:36:24.138Z,97655.63
2023-03-06T22:38:57.445Z,97664.47
2023-03-06T22:41:26.838Z,97660.75
2023-03-06T22:43:59.725Z,97657.81
2023-03-06T22:46:27.860Z,97658.88
2023-03-06T22:48:57.462Z,97653.50
2023-03-06T22:51:25.606Z,97656.50
2023-03-06T22:53:54.005Z,97652.28
2023-03-06T22:56:22.728Z,97648.78
2023-03-06T22:58:49.824Z,97649.59
2023-03-06T23:01:21.424Z,97649.81
2023-03-06T23:03:55.255Z,97636.72
2023-03-06T23:06:29.397Z,97640.22
2023-03-06T23:09:07.765Z,97635.69
2023-03-06T23:11:35.124Z,97627.91
2023-03-06T23:14:02.467Z,97630.06
2023-03-06T23:16:29.698Z,97624.19
2023-03-06T23:18:56.540Z,97626.88
2023-03-06T23:21:24.883Z,97628.47
2023-03-06T23:23:53.897Z,97612.38
2023-03-06T23:26:27.581Z,97612.16
2023-03-06T23:28:55.298Z,97611.63
2023-03-06T23:31:29.434Z,97615.91
2023-03-06T23:34:02.285Z,97608.44
2023-03-06T23:36:30.184Z,97608.97
2023-03-06T23:38:57.550Z,97606.31
2023-03-06T23:41:24.974Z,97615.44
2023-03-06T23:43:54.953Z,97610.88
2023-03-06T23:46:22.501Z,97614.06
2023-03-06T23:48:49.412Z,97619.94
2023-03-06T23:51:22.278Z,97612.38
2023-03-06T23:53:58.858Z,97617.16
2023-03-06T23:56:28.452Z,97614.78
2023-03-06T23:58:55.507Z,97613.69
